Time;durP1;ratioP1;P1;durP2;ratioP2;P2;SDS_P1;SDS_P2;PMS_P1;PMS_P2;Temp;Humidity;BMP_temperature;BMP_pressure;BME280_temperature;BME280_humidity;BME280_pressure;Samples;Min_cycle;Max_cycle;Signal;HPM_P1;HPM_P2
2022/07/14 00:00:51;;;;;;;179.38;170.40;;;;;;;;;;5044972;28;20358;-73
2022/07/14 00:03:16;;;;;;;185.75;176.43;;;;;;;;;;5045187;28;20025;-74
2022/07/14 00:05:42;;;;;;;271.50;257.67;;;;;;;;;;5044819;28;20051;-73
2022/07/14 00:08:07;;;;;;;324.60;308.45;;;;;;;;;;5043520;28;20048;-75
2022/07/14 00:10:33;;;;;;;200.40;190.00;;;;;;;;;;5043773;28;20085;-74
2022/07/14 00:12:59;;;;;;;138.63;131.43;;;;;;;;;;5043499;28;20029;-74
2022/07/14 00:15:24;;;;;;;322.75;306.23;;;;;;;;;;5045465;28;20040;-74
2022/07/14 00:17:50;;;;;;;244.02;231.63;;;;;;;;;;5044678;28;20024;-74
2022/07/14 00:20:16;;;;;;;266.45;252.60;;;;;;;;;;5043874;28;20119;-74
2022/07/14 00:22:41;;;;;;;311.60;295.90;;;;;;;;;;5044647;28;20033;-73
2022/07/14 00:25:07;;;;;;;223.82;212.70;;;;;;;;;;5043507;28;20036;-73
2022/07/14 00:27:35;;;;;;;175.02;166.30;;;;;;;;;;5043518;28;20055;-72
2022/07/14 00:30:00;;;;;;;328.95;312.23;;;;;;;;;;5044078;28;20120;-73
2022/07/14 00:32:26;;;;;;;174.35;165.50;;;;;;;;;;5045192;28;20108;-72
2022/07/14 00:34:51;;;;;;;156.15;148.27;;;;;;;;;;5044092;28;20110;-74
2022/07/14 00:37:17;;;;;;;132.55;125.82;;;;;;;;;;5044171;28;20028;-73
2022/07/14 00:39:54;;;;;;;151.60;143.93;;;;;;;;;;5043913;28;20031;-74
2022/07/14 00:42:28;;;;;;;172.90;164.05;;;;;;;;;;5044894;28;20485;-75
2022/07/14 00:44:53;;;;;;;197.90;187.80;;;;;;;;;;5045364;28;20029;-75
2022/07/14 00:47:19;;;;;;;168.18;159.57;;;;;;;;;;5044031;28;20055;-74
2022/07/14 00:49:44;;;;;;;182.63;173.35;;;;;;;;;;5043824;28;20044;-74
2022/07/14 00:52:09;;;;;;;128.00;121.32;;;;;;;;;;5044674;28;20151;-73
2022/07/14 00:54:35;;;;;;;127.72;121.15;;;;;;;;;;5045333;28;20068;-72
2022/07/14 00:57:01;;;;;;;156.88;148.68;;;;;;;;;;5048913;28;20179;-72
2022/07/14 00:59:27;;;;;;;189.35;179.73;;;;;;;;;;5047967;28;20092;-73
2022/07/14 01:01:52;;;;;;;190.93;181.27;;;;;;;;;;5048603;28;20153;-74
2022/07/14 01:04:18;;;;;;;226.93;215.52;;;;;;;;;;5047008;28;20314;-73
2022/07/14 01:06:43;;;;;;;194.75;184.88;;;;;;;;;;5046771;28;20037;-73
2022/07/14 01:09:08;;;;;;;145.63;138.18;;;;;;;;;;5047603;28;20032;-73
2022/07/14 01:11:34;;;;;;;129.25;122.57;;;;;;;;;;5048006;28;20108;-72
2022/07/14 01:14:03;;;;;;;128.13;121.57;;;;;;;;;;5030533;28;20039;-72
2022/07/14 01:16:29;;;;;;;260.45;247.23;;;;;;;;;;5046600;28;20224;-73
2022/07/14 01:18:54;;;;;;;145.38;137.95;;;;;;;;;;5048749;28;20115;-73
2022/07/14 01:21:20;;;;;;;135.13;128.18;;;;;;;;;;5048063;28;20366;-72
2022/07/14 01:23:45;;;;;;;144.43;137.07;;;;;;;;;;5047438;28;20037;-72
2022/07/14 01:26:10;;;;;;;117.55;111.57;;;;;;;;;;5046719;28;20119;-72
2022/07/14 01:28:36;;;;;;;125.07;118.57;;;;;;;;;;5047812;28;20039;-72
2022/07/14 01:31:01;;;;;;;127.15;120.63;;;;;;;;;;5048112;28;20021;-72
2022/07/14 01:33:27;;;;;;;126.65;120.22;;;;;;;;;;5047489;28;20061;-72
2022/07/14 01:35:52;;;;;;;166.98;158.43;;;;;;;;;;5046503;28;20036;-72
2022/07/14 01:38:18;;;;;;;155.15;147.23;;;;;;;;;;5046866;28;20401;-72
2022/07/14 01:40:45;;;;;;;115.50;109.72;;;;;;;;;;5046218;28;20021;-72
2022/07/14 01:43:10;;;;;;;126.32;119.97;;;;;;;;;;5046430;28;20025;-72
2022/07/14 01:45:36;;;;;;;118.55;112.50;;;;;;;;;;5047403;28;20416;-71
2022/07/14 01:48:02;;;;;;;124.50;118.22;;;;;;;;;;5048086;28;20033;-72
2022/07/14 01:50:27;;;;;;;121.13;115.05;;;;;;;;;;5047778;28;20370;-72
2022/07/14 01:52:53;;;;;;;156.15;148.15;;;;;;;;;;5028707;28;20041;-72
2022/07/14 01:55:19;;;;;;;152.32;144.60;;;;;;;;;;5048020;28;20021;-72
2022/07/14 01:57:44;;;;;;;135.93;129.02;;;;;;;;;;5047059;28;20593;-71
2022/07/14 02:00:10;;;;;;;142.70;135.50;;;;;;;;;;5047297;28;20039;-71
2022/07/14 02:02:35;;;;;;;173.43;164.65;;;;;;;;;;5047515;28;20358;-71
2022/07/14 02:05:01;;;;;;;152.80;145.02;;;;;;;;;;5045818;28;20029;-72
2022/07/14 02:07:26;;;;;;;146.23;138.77;;;;;;;;;;5046151;28;20098;-71
2022/07/14 02:12:36;;;;;;;120.32;114.22;;;;;;;;;;5047130;28;20082;-71
2022/07/14 02:15:01;;;;;;;129.20;122.63;;;;;;;;;;5047165;28;20060;-72
2022/07/14 02:17:26;;;;;;;150.00;142.38;;;;;;;;;;5046751;28;20120;-71
2022/07/14 02:19:52;;;;;;;132.95;126.25;;;;;;;;;;5047108;28;20052;-71
2022/07/14 02:22:17;;;;;;;145.25;137.90;;;;;;;;;;5046881;28;20366;-71
2022/07/14 02:24:42;;;;;;;151.00;143.32;;;;;;;;;;5047046;28;20553;-72
2022/07/14 02:27:08;;;;;;;152.80;145.02;;;;;;;;;;5045165;28;20125;-72
2022/07/14 02:29:33;;;;;;;147.68;140.20;;;;;;;;;;5046784;28;20035;-71
2022/07/14 02:31:58;;;;;;;157.60;149.60;;;;;;;;;;5046050;28;20025;-71
2022/07/14 02:34:24;;;;;;;159.20;151.15;;;;;;;;;;5046411;28;20029;-72
2022/07/14 02:36:49;;;;;;;163.70;155.40;;;;;;;;;;5046691;28;20021;-72
2022/07/14 02:39:15;;;;;;;154.93;147.13;;;;;;;;;;5046978;28;20159;-71
2022/07/14 02:41:42;;;;;;;181.18;172.02;;;;;;;;;;5046985;28;20145;-71
2022/07/14 02:44:08;;;;;;;152.50;144.85;;;;;;;;;;5045839;28;20044;-71
2022/07/14 02:46:34;;;;;;;196.48;186.55;;;;;;;;;;5044893;28;20037;-71
2022/07/14 02:49:00;;;;;;;229.65;218.15;;;;;;;;;;5046920;28;20264;-71
2022/07/14 02:51:25;;;;;;;224.55;213.32;;;;;;;;;;5047140;28;20064;-71
2022/07/14 02:53:51;;;;;;;216.50;205.63;;;;;;;;;;5046044;28;20039;-71
2022/07/14 02:56:16;;;;;;;216.55;205.75;;;;;;;;;;5029569;28;20076;-71
2022/07/14 02:58:42;;;;;;;177.32;168.50;;;;;;;;;;5029062;28;20128;-70
2022/07/14 03:01:08;;;;;;;140.57;133.52;;;;;;;;;;5046329;28;20029;-70
2022/07/14 03:03:35;;;;;;;133.90;126.97;;;;;;;;;;5045891;28;20043;-72
2022/07/14 03:06:15;;;;;;;194.23;184.23;;;;;;;;;;5045349;28;20348;-71
2022/07/14 03:08:41;;;;;;;229.77;217.85;;;;;;;;;;5046607;28;20033;-71
2022/07/14 03:11:07;;;;;;;255.73;242.52;;;;;;;;;;5045520;28;20083;-71
2022/07/14 03:13:32;;;;;;;286.63;271.73;;;;;;;;;;5046442;28;20098;-71
2022/07/14 03:15:59;;;;;;;289.48;274.55;;;;;;;;;;5047279;28;20045;-71
2022/07/14 03:18:25;;;;;;;301.23;285.48;;;;;;;;;;5045232;28;20086;-71
2022/07/14 03:20:52;;;;;;;371.35;351.65;;;;;;;;;;5046193;28;20033;-71
2022/07/14 03:23:17;;;;;;;489.77;462.33;;;;;;;;;;5046319;28;20105;-71
2022/07/14 03:25:43;;;;;;;429.13;405.60;;;;;;;;;;5045151;28;20107;-71
2022/07/14 03:28:10;;;;;;;486.05;458.80;;;;;;;;;;5046746;28;20481;-71
2022/07/14 03:30:35;;;;;;;485.02;457.52;;;;;;;;;;5052475;28;20274;-71
2022/07/14 03:33:00;;;;;;;451.88;427.00;;;;;;;;;;5046145;28;20429;-71
2022/07/14 03:35:26;;;;;;;409.45;387.77;;;;;;;;;;5045173;28;20040;-71
2022/07/14 03:37:51;;;;;;;424.92;402.15;;;;;;;;;;5045500;28;20032;-71
2022/07/14 03:40:17;;;;;;;423.17;400.55;;;;;;;;;;5046499;28;20029;-71
2022/07/14 03:42:44;;;;;;;517.17;487.63;;;;;;;;;;5046328;28;20029;-71
2022/07/14 03:45:09;;;;;;;498.00;469.60;;;;;;;;;;5045794;28;20374;-72
2022/07/14 03:47:34;;;;;;;502.50;474.02;;;;;;;;;;5045090;28;20067;-72
2022/07/14 03:50:00;;;;;;;487.90;460.45;;;;;;;;;;5045825;28;20048;-72
2022/07/14 03:52:25;;;;;;;445.27;421.08;;;;;;;;;;5046173;28;20057;-72
2022/07/14 03:54:51;;;;;;;421.67;399.02;;;;;;;;;;5060088;28;20409;-71
2022/07/14 03:57:16;;;;;;;388.30;367.83;;;;;;;;;;5045840;28;20033;-71
2022/07/14 03:59:42;;;;;;;314.52;298.17;;;;;;;;;;5044055;28;20289;-72
2022/07/14 04:02:11;;;;;;;271.00;256.55;;;;;;;;;;5045162;28;20108;-72
2022/07/14 04:04:37;;;;;;;403.70;382.05;;;;;;;;;;5044304;28;20209;-72
2022/07/14 04:07:04;;;;;;;290.70;275.65;;;;;;;;;;5044510;28;20029;-72
2022/07/14 04:09:30;;;;;;;245.90;233.40;;;;;;;;;;5045354;28;20120;-72
2022/07/14 04:11:56;;;;;;;256.70;243.68;;;;;;;;;;5044634;28;20044;-72
2022/07/14 04:14:21;;;;;;;243.70;231.02;;;;;;;;;;5045374;28;20029;-72
2022/07/14 04:16:47;;;;;;;227.43;216.02;;;;;;;;;;5045484;28;20584;-71
2022/07/14 04:19:13;;;;;;;237.90;225.85;;;;;;;;;;5044284;28;20029;-71
2022/07/14 04:21:39;;;;;;;236.20;224.05;;;;;;;;;;5045763;28;20065;-71
2022/07/14 04:24:04;;;;;;;248.80;236.15;;;;;;;;;;5045072;28;20383;-71
2022/07/14 04:26:30;;;;;;;217.55;206.50;;;;;;;;;;5045655;28;20037;-71
2022/07/14 04:28:55;;;;;;;188.30;178.77;;;;;;;;;;5046164;28;20098;-71
2022/07/14 04:31:21;;;;;;;212.35;201.52;;;;;;;;;;5048451;28;20434;-71
2022/07/14 04:33:47;;;;;;;274.60;260.42;;;;;;;;;;5049556;28;20458;-71
2022/07/14 04:36:12;;;;;;;221.18;209.88;;;;;;;;;;5049342;28;20290;-71
2022/07/14 04:38:37;;;;;;;194.05;184.15;;;;;;;;;;5048351;28;20041;-72
2022/07/14 04:41:03;;;;;;;170.30;161.60;;;;;;;;;;5048715;28;20445;-71
2022/07/14 04:43:29;;;;;;;140.45;133.18;;;;;;;;;;5048094;28;20431;-71
2022/07/14 04:45:54;;;;;;;135.00;128.10;;;;;;;;;;5047894;28;20040;-71
2022/07/14 04:48:19;;;;;;;125.30;118.95;;;;;;;;;;5046131;28;20032;-71
2022/07/14 04:53:28;;;;;;;133.52;126.60;;;;;;;;;;5048849;28;20358;-71
2022/07/14 04:55:54;;;;;;;97.38;92.45;;;;;;;;;;5049619;28;20033;-71
2022/07/14 04:58:20;;;;;;;106.93;101.32;;;;;;;;;;5047971;28;20375;-71
2022/07/14 05:00:45;;;;;;;127.40;120.82;;;;;;;;;;5049225;28;20052;-71
2022/07/14 05:03:11;;;;;;;103.03;97.70;;;;;;;;;;5050255;28;20064;-71
2022/07/14 05:05:36;;;;;;;141.88;134.60;;;;;;;;;;5049405;28;20465;-71
2022/07/14 05:45:22;;;;;;;146.80;139.48;;;;;;;;;;5045179;28;20032;-69
2022/07/14 05:47:47;;;;;;;198.13;188.32;;;;;;;;;;5038464;28;20040;-69
2022/07/14 05:50:12;;;;;;;125.50;119.20;;;;;;;;;;5043973;28;20053;-69
2022/07/14 05:52:40;;;;;;;203.98;193.82;;;;;;;;;;5045310;28;20029;-69
2022/07/14 05:55:05;;;;;;;110.82;105.28;;;;;;;;;;5043950;28;20398;-69
2022/07/14 05:57:31;;;;;;;142.25;135.07;;;;;;;;;;5044272;28;20112;-69
2022/07/14 05:59:56;;;;;;;117.28;111.45;;;;;;;;;;5046597;28;20103;-69
2022/07/14 06:02:21;;;;;;;100.55;95.47;;;;;;;;;;5048016;28;20198;-66
2022/07/14 06:04:47;;;;;;;73.25;69.57;;;;;;;;;;5047124;28;20122;-69
2022/07/14 06:07:12;;;;;;;90.45;85.95;;;;;;;;;;5044499;28;20035;-69
2022/07/14 06:09:38;;;;;;;113.70;107.97;;;;;;;;;;5048127;28;20033;-70
2022/07/14 06:12:08;;;;;;;99.15;94.15;;;;;;;;;;5047311;28;20068;-70
2022/07/14 06:14:33;;;;;;;117.50;111.70;;;;;;;;;;5047467;28;20128;-67
2022/07/14 06:16:59;;;;;;;85.43;81.13;;;;;;;;;;5047308;28;20422;-69
2022/07/14 06:19:24;;;;;;;203.73;193.57;;;;;;;;;;5047480;28;20548;-70
2022/07/14 06:21:49;;;;;;;172.35;163.68;;;;;;;;;;5047058;28;20021;-67
2022/07/14 06:24:15;;;;;;;260.88;247.82;;;;;;;;;;5045136;28;20037;-70
2022/07/14 06:26:41;;;;;;;340.38;322.88;;;;;;;;;;5045155;28;20516;-69
2022/07/14 06:29:06;;;;;;;250.73;237.95;;;;;;;;;;5042484;28;20103;-69
2022/07/14 06:31:34;;;;;;;211.25;200.38;;;;;;;;;;5042943;28;20813;-69
2022/07/14 06:34:00;;;;;;;233.68;221.77;;;;;;;;;;5045640;28;20032;-70
2022/07/14 06:36:26;;;;;;;301.30;285.60;;;;;;;;;;5045914;28;20029;-68
2022/07/14 06:38:51;;;;;;;161.82;153.63;;;;;;;;;;5045487;28;20036;-68
2022/07/14 06:41:19;;;;;;;296.33;281.42;;;;;;;;;;5047560;28;20048;-68
2022/07/14 06:43:44;;;;;;;248.85;236.70;;;;;;;;;;5045894;28;20048;-68
2022/07/14 06:46:16;;;;;;;230.05;218.45;;;;;;;;;;5043454;28;20370;-69
2022/07/14 06:48:42;;;;;;;207.98;197.30;;;;;;;;;;5043029;28;20066;-69
2022/07/14 06:51:07;;;;;;;369.98;350.42;;;;;;;;;;5046305;28;20032;-69
2022/07/14 06:53:33;;;;;;;282.05;267.17;;;;;;;;;;5045320;28;20413;-68
2022/07/14 06:55:58;;;;;;;330.95;313.60;;;;;;;;;;5045901;28;20029;-68
2022/07/14 06:58:24;;;;;;;388.52;368.00;;;;;;;;;;5045776;28;20048;-69
2022/07/14 07:00:49;;;;;;;285.58;270.95;;;;;;;;;;5046124;28;20033;-69
2022/07/14 07:03:14;;;;;;;284.65;269.52;;;;;;;;;;5046846;28;20260;-69
2022/07/14 07:08:24;;;;;;;154.73;146.88;;;;;;;;;;5046277;28;20051;-69
2022/07/14 07:10:50;;;;;;;228.95;217.27;;;;;;;;;;5045832;28;20029;-69
2022/07/14 07:13:16;;;;;;;168.57;160.05;;;;;;;;;;5045785;28;20639;-69
2022/07/14 07:15:41;;;;;;;340.20;322.23;;;;;;;;;;5045873;28;20044;-69
2022/07/14 07:18:07;;;;;;;219.60;208.30;;;;;;;;;;5046153;28;20353;-69
2022/07/14 07:20:34;;;;;;;254.90;241.75;;;;;;;;;;5046022;28;20068;-68
2022/07/14 07:23:00;;;;;;;380.67;360.63;;;;;;;;;;5044135;28;20048;-70
2022/07/14 07:25:26;;;;;;;210.27;199.65;;;;;;;;;;5045630;28;20040;-70
2022/07/14 07:27:52;;;;;;;337.10;319.45;;;;;;;;;;5045409;28;20048;-70
2022/07/14 07:30:17;;;;;;;419.15;396.60;;;;;;;;;;5045940;28;20033;-70
2022/07/14 07:32:42;;;;;;;213.50;202.75;;;;;;;;;;5045852;28;20029;-70
2022/07/14 07:35:08;;;;;;;292.05;277.13;;;;;;;;;;5046220;28;20040;-70
2022/07/14 07:37:34;;;;;;;277.13;262.65;;;;;;;;;;5045305;28;20510;-70
2022/07/14 07:40:00;;;;;;;404.73;383.05;;;;;;;;;;5044826;28;20400;-70
2022/07/14 07:42:25;;;;;;;221.10;210.07;;;;;;;;;;5045443;28;20199;-70
2022/07/14 07:44:51;;;;;;;247.52;235.13;;;;;;;;;;5044925;28;20025;-70
2022/07/14 07:47:16;;;;;;;266.77;253.43;;;;;;;;;;5044917;28;20035;-70
2022/07/14 07:49:42;;;;;;;258.80;245.50;;;;;;;;;;5045668;28;20096;-70
2022/07/14 07:52:07;;;;;;;254.48;241.52;;;;;;;;;;5045860;28;20029;-70
2022/07/14 07:54:33;;;;;;;314.52;298.25;;;;;;;;;;5045770;28;20041;-70
2022/07/14 07:56:59;;;;;;;267.17;253.50;;;;;;;;;;5043071;28;20133;-70
2022/07/14 07:59:26;;;;;;;185.82;176.50;;;;;;;;;;5044893;28;20119;-70
2022/07/14 08:01:51;;;;;;;206.15;195.93;;;;;;;;;;5045451;28;20383;-69
2022/07/14 08:04:17;;;;;;;305.90;289.95;;;;;;;;;;5044500;28;20032;-70
2022/07/14 08:06:42;;;;;;;181.63;172.55;;;;;;;;;;5044639;28;20094;-69
2022/07/14 08:09:11;;;;;;;134.77;128.05;;;;;;;;;;5045696;28;20024;-67
2022/07/14 08:11:39;;;;;;;72.25;68.63;;;;;;;;;;5045196;28;20037;-67
2022/07/14 08:14:04;;;;;;;102.45;97.18;;;;;;;;;;5044855;28;20102;-67
2022/07/14 08:16:30;;;;;;;205.10;194.93;;;;;;;;;;5044778;28;20064;-68
2022/07/14 08:18:55;;;;;;;195.52;185.88;;;;;;;;;;5044789;28;20029;-69
2022/07/14 08:21:20;;;;;;;65.20;61.90;;;;;;;;;;5044862;28;20112;-70
2022/07/14 08:23:46;;;;;;;53.25;50.50;;;;;;;;;;5044722;28;20036;-70
2022/07/14 08:26:11;;;;;;;262.70;249.52;;;;;;;;;;5044758;28;20048;-70
2022/07/14 08:28:36;;;;;;;326.20;309.45;;;;;;;;;;5044718;28;20033;-69
2022/07/14 08:31:02;;;;;;;412.13;389.38;;;;;;;;;;5045397;28;20029;-70
2022/07/14 08:33:27;;;;;;;87.57;83.13;;;;;;;;;;5044700;28;20039;-70
2022/07/14 08:35:53;;;;;;;89.95;85.47;;;;;;;;;;5045109;28;20482;-69
2022/07/14 08:38:18;;;;;;;245.35;233.15;;;;;;;;;;5043951;28;20052;-70
2022/07/14 08:40:43;;;;;;;182.73;173.43;;;;;;;;;;5043854;28;20020;-68
2022/07/14 08:43:10;;;;;;;168.60;160.25;;;;;;;;;;5044350;28;20029;-68
2022/07/14 08:45:44;;;;;;;294.17;279.45;;;;;;;;;;5041688;28;20033;-69
2022/07/14 08:48:09;;;;;;;78.00;74.00;;;;;;;;;;5045030;28;20025;-68
2022/07/14 08:50:35;;;;;;;103.20;98.05;;;;;;;;;;5043136;28;20033;-68
2022/07/14 08:53:04;;;;;;;86.88;82.55;;;;;;;;;;5043545;28;20032;-67
2022/07/14 08:55:30;;;;;;;98.43;93.53;;;;;;;;;;5040903;28;20073;-67
2022/07/14 08:57:56;;;;;;;123.57;117.43;;;;;;;;;;5043673;28;20131;-66
2022/07/14 09:00:21;;;;;;;96.05;91.15;;;;;;;;;;5044399;28;20159;-68
2022/07/14 09:02:49;;;;;;;140.57;133.65;;;;;;;;;;5043757;28;20033;-68
2022/07/14 09:05:15;;;;;;;92.22;87.63;;;;;;;;;;5042238;28;20114;-67
2022/07/14 09:07:41;;;;;;;118.80;112.95;;;;;;;;;;5044694;28;20079;-68
2022/07/14 09:10:11;;;;;;;110.05;104.65;;;;;;;;;;5044043;28;20037;-70
2022/07/14 09:12:38;;;;;;;129.68;123.25;;;;;;;;;;5043912;28;20032;-71
2022/07/14 09:18:00;;;;;;;94.25;89.55;;;;;;;;;;5047873;28;20037;-72
2022/07/14 09:20:31;;;;;;;105.72;100.47;;;;;;;;;;5046866;28;20029;-71
2022/07/14 09:23:02;;;;;;;116.47;110.70;;;;;;;;;;5048755;28;20052;-72
2022/07/14 09:25:31;;;;;;;132.57;126.03;;;;;;;;;;5047210;28;20397;-72
2022/07/14 09:27:56;;;;;;;196.35;186.68;;;;;;;;;;5046411;28;20123;-71
2022/07/14 09:30:23;;;;;;;168.32;160.00;;;;;;;;;;5047701;28;20128;-71
2022/07/14 09:33:17;;;;;;;150.05;142.57;;;;;;;;;;5047592;28;20025;-70
2022/07/14 09:35:42;;;;;;;147.05;139.77;;;;;;;;;;5045167;28;20063;-71
2022/07/14 09:38:17;;;;;;;124.70;118.53;;;;;;;;;;5046787;28;20116;-71
2022/07/14 09:40:44;;;;;;;148.38;140.98;;;;;;;;;;5047900;28;20056;-71
2022/07/14 09:43:13;;;;;;;133.88;127.25;;;;;;;;;;5047823;28;20024;-70
2022/07/14 09:45:42;;;;;;;139.93;132.95;;;;;;;;;;5048364;28;20045;-69
2022/07/14 09:48:13;;;;;;;148.68;141.30;;;;;;;;;;5048562;28;20120;-69
2022/07/14 09:50:42;;;;;;;128.10;121.68;;;;;;;;;;5049059;28;20528;-70
2022/07/14 09:53:25;;;;;;;129.20;122.03;;;;;;;;;;5036321;28;20485;-72
2022/07/14 09:55:56;;;;;;;127.22;120.80;;;;;;;;;;5047379;28;20380;-71
2022/07/14 09:58:31;;;;;;;161.40;153.35;;;;;;;;;;5048281;28;20047;-71
2022/07/14 10:01:04;;;;;;;137.30;130.48;;;;;;;;;;5047856;28;20044;-71
2022/07/14 10:03:32;;;;;;;154.52;146.82;;;;;;;;;;5046242;28;20037;-71
2022/07/14 10:06:00;;;;;;;122.90;116.70;;;;;;;;;;5047082;28;20032;-71
2022/07/14 10:08:30;;;;;;;121.00;114.90;;;;;;;;;;5048028;28;20033;-72
2022/07/14 10:10:58;;;;;;;108.93;103.50;;;;;;;;;;5046702;28;20061;-71
2022/07/14 10:13:24;;;;;;;136.55;129.65;;;;;;;;;;5047598;28;20120;-70
2022/07/14 10:15:51;;;;;;;136.70;129.85;;;;;;;;;;5045401;28;20081;-70
2022/07/14 10:18:17;;;;;;;146.38;139.05;;;;;;;;;;5046109;28;20025;-70
2022/07/14 10:20:48;;;;;;;151.23;143.68;;;;;;;;;;5043844;28;20394;-71
2022/07/14 10:23:14;;;;;;;212.55;201.98;;;;;;;;;;5047618;28;20100;-69
2022/07/14 10:25:41;;;;;;;134.20;127.50;;;;;;;;;;5046231;28;20028;-69
2022/07/14 10:28:07;;;;;;;145.90;138.60;;;;;;;;;;5046877;28;20129;-70
2022/07/14 10:30:35;;;;;;;133.43;126.80;;;;;;;;;;5044020;28;20059;-71
2022/07/14 10:33:07;;;;;;;131.75;125.22;;;;;;;;;;5045530;28;21198;-70
2022/07/14 10:35:51;;;;;;;129.38;122.93;;;;;;;;;;5046205;28;20127;-69
2022/07/14 10:38:46;;;;;;;217.07;206.32;;;;;;;;;;5045824;28;20506;-69
2022/07/14 10:41:30;;;;;;;117.60;111.72;;;;;;;;;;5046006;28;20029;-69
2022/07/14 10:44:24;;;;;;;133.52;126.90;;;;;;;;;;5046632;28;20650;-72
2022/07/14 10:47:04;;;;;;;156.68;148.88;;;;;;;;;;5043817;28;20137;-71
2022/07/14 10:49:30;;;;;;;189.98;180.55;;;;;;;;;;5045895;28;20206;-70
2022/07/14 10:51:56;;;;;;;190.10;180.27;;;;;;;;;;5046444;28;20696;-68
2022/07/14 10:54:30;;;;;;;223.80;212.60;;;;;;;;;;5045982;28;20036;-68
2022/07/14 10:57:09;;;;;;;174.38;165.57;;;;;;;;;;5046062;28;20037;-69
2022/07/14 10:59:36;;;;;;;176.82;168.07;;;;;;;;;;5047529;28;20074;-69
2022/07/14 11:02:13;;;;;;;180.88;171.85;;;;;;;;;;5045508;28;20028;-71
2022/07/14 11:05:00;;;;;;;202.88;192.93;;;;;;;;;;5045033;28;20121;-69
2022/07/14 11:07:52;;;;;;;159.90;151.95;;;;;;;;;;5045312;28;20379;-72
2022/07/14 11:10:20;;;;;;;249.32;236.90;;;;;;;;;;5047348;28;20025;-69
2022/07/14 11:13:04;;;;;;;268.92;255.50;;;;;;;;;;5047247;28;20149;-70
2022/07/14 11:15:52;;;;;;;255.60;242.90;;;;;;;;;;5045797;28;20056;-70
2022/07/14 11:18:17;;;;;;;263.73;250.63;;;;;;;;;;5045406;28;20116;-70
2022/07/14 11:20:55;;;;;;;318.00;301.98;;;;;;;;;;5045322;28;20116;-73
2022/07/14 11:23:24;;;;;;;211.82;201.35;;;;;;;;;;5045573;28;20593;-70
2022/07/14 11:25:52;;;;;;;266.88;253.75;;;;;;;;;;5045598;28;20108;-71
2022/07/14 11:28:29;;;;;;;307.33;291.90;;;;;;;;;;5043713;28;20506;-72
2022/07/14 11:31:14;;;;;;;334.13;317.23;;;;;;;;;;5059577;28;20164;-69
2022/07/14 11:36:31;;;;;;;318.30;302.27;;;;;;;;;;5045778;28;20025;-68
2022/07/14 11:39:15;;;;;;;327.98;311.20;;;;;;;;;;5043858;28;20052;-70
2022/07/14 11:41:43;;;;;;;320.65;304.60;;;;;;;;;;5046219;28;20060;-72
2022/07/14 11:44:30;;;;;;;215.25;204.57;;;;;;;;;;5047277;28;20036;-74
2022/07/14 11:46:58;;;;;;;321.13;304.95;;;;;;;;;;5045443;28;20064;-74
2022/07/14 11:49:25;;;;;;;239.50;227.60;;;;;;;;;;5044785;28;20666;-72
2022/07/14 11:51:53;;;;;;;326.08;309.70;;;;;;;;;;5045620;28;20037;-72
2022/07/14 11:54:20;;;;;;;265.98;252.77;;;;;;;;;;5047523;28;20121;-71
2022/07/14 11:56:45;;;;;;;307.98;292.60;;;;;;;;;;5046700;28;20048;-73
2022/07/14 11:59:17;;;;;;;213.48;202.85;;;;;;;;;;5046625;28;20039;-71
2022/07/14 12:01:43;;;;;;;93.35;88.70;;;;;;;;;;5046598;28;20498;-72
2022/07/14 12:04:14;;;;;;;209.02;198.52;;;;;;;;;;5046077;28;20032;-73
2022/07/14 12:06:43;;;;;;;159.05;151.07;;;;;;;;;;5045889;28;20390;-73
2022/07/14 12:09:09;;;;;;;62.75;59.58;;;;;;;;;;5044897;28;20474;-73
2022/07/14 12:11:34;;;;;;;135.52;128.75;;;;;;;;;;5045322;28;20048;-73
2022/07/14 12:14:00;;;;;;;92.18;87.50;;;;;;;;;;5045663;28;20037;-72
2022/07/14 12:16:25;;;;;;;60.45;57.42;;;;;;;;;;5043970;28;20048;-73
2022/07/14 12:18:53;;;;;;;167.45;159.07;;;;;;;;;;5044470;28;20029;-73
2022/07/14 12:21:32;;;;;;;60.03;57.00;;;;;;;;;;5045200;28;20591;-72
2022/07/14 12:23:57;;;;;;;46.33;43.93;;;;;;;;;;5059694;28;20032;-72
2022/07/14 12:26:24;;;;;;;51.15;48.45;;;;;;;;;;5047022;28;20256;-72
2022/07/14 12:28:52;;;;;;;62.00;58.80;;;;;;;;;;5045253;28;20043;-72
2022/07/14 12:31:19;;;;;;;92.47;87.90;;;;;;;;;;5045210;28;20035;-71
2022/07/14 12:33:46;;;;;;;157.88;150.07;;;;;;;;;;5044748;28;20095;-71
2022/07/14 12:36:17;;;;;;;103.30;98.20;;;;;;;;;;5045379;28;20041;-73
2022/07/14 12:38:44;;;;;;;107.15;101.82;;;;;;;;;;5043955;28;20033;-74
2022/07/14 12:41:10;;;;;;;195.15;185.60;;;;;;;;;;5045288;28;20506;-71
2022/07/14 12:43:38;;;;;;;180.23;171.32;;;;;;;;;;5045248;28;20556;-72
2022/07/14 12:46:08;;;;;;;156.30;148.50;;;;;;;;;;5045538;28;20028;-74
2022/07/14 12:48:44;;;;;;;84.75;80.53;;;;;;;;;;5044439;28;20102;-73
2022/07/14 12:51:27;;;;;;;199.20;189.30;;;;;;;;;;5048624;28;20203;-72
2022/07/14 12:53:55;;;;;;;95.10;90.40;;;;;;;;;;5047960;28;20036;-72
2022/07/14 12:56:22;;;;;;;93.03;88.43;;;;;;;;;;5048035;28;20098;-73
2022/07/14 12:58:47;;;;;;;97.07;92.28;;;;;;;;;;5047916;28;20024;-73
2022/07/14 13:01:13;;;;;;;93.55;88.93;;;;;;;;;;5048575;28;20047;-74
2022/07/14 13:03:38;;;;;;;128.75;122.32;;;;;;;;;;5048839;28;20107;-75
2022/07/14 13:06:04;;;;;;;120.25;114.30;;;;;;;;;;5047737;28;20086;-73
2022/07/14 13:08:35;;;;;;;154.40;146.75;;;;;;;;;;5048549;28;20474;-73
2022/07/14 13:11:03;;;;;;;120.93;114.93;;;;;;;;;;5047292;28;20029;-74
2022/07/14 13:13:30;;;;;;;156.45;148.60;;;;;;;;;;5047888;28;20032;-73
2022/07/14 13:16:30;;;;;;;113.95;108.30;;;;;;;;;;5048565;28;20029;-72
2022/07/14 13:19:13;;;;;;;;;;;;;;;;;;5048074;28;20025;-72
2022/07/14 13:22:02;;;;;;;158.48;150.48;;;;;;;;;;5048757;28;20031;-72
2022/07/14 13:24:36;;;;;;;159.73;151.80;;;;;;;;;;5047134;28;20036;-73
2022/07/14 13:27:18;;;;;;;167.30;159.00;;;;;;;;;;5049411;28;20044;-73
2022/07/14 13:29:50;;;;;;;160.52;152.52;;;;;;;;;;5046024;28;20036;-76
2022/07/14 13:32:16;;;;;;;166.15;157.85;;;;;;;;;;5049071;28;20120;-77
2022/07/14 13:34:43;;;;;;;147.77;140.35;;;;;;;;;;5048463;28;20048;-73
2022/07/14 13:37:12;;;;;;;156.25;148.13;;;;;;;;;;5049155;28;20037;-72
2022/07/14 13:39:38;;;;;;;157.35;149.45;;;;;;;;;;5048064;28;20037;-69
2022/07/14 13:42:03;;;;;;;176.73;167.93;;;;;;;;;;5048793;28;20044;-68
2022/07/14 13:44:29;;;;;;;141.75;134.65;;;;;;;;;;5048644;28;20114;-70
2022/07/14 13:46:56;;;;;;;134.05;127.35;;;;;;;;;;5046338;28;20032;-69
2022/07/14 13:49:22;;;;;;;138.45;131.57;;;;;;;;;;5048046;28;20090;-69
2022/07/14 13:54:31;;;;;;;157.98;150.07;;;;;;;;;;5047257;28;20387;-69
2022/07/14 13:56:57;;;;;;;179.77;170.85;;;;;;;;;;5047709;28;20094;-69
2022/07/14 13:59:23;;;;;;;178.48;169.57;;;;;;;;;;5047802;28;20047;-69
2022/07/14 14:01:48;;;;;;;176.90;168.05;;;;;;;;;;5046825;28;20029;-69
2022/07/14 14:04:14;;;;;;;174.15;165.43;;;;;;;;;;5046846;28;20029;-69
2022/07/14 14:06:43;;;;;;;172.07;163.48;;;;;;;;;;5046845;28;20032;-69
2022/07/14 14:09:10;;;;;;;157.85;149.98;;;;;;;;;;5047725;28;20036;-69
2022/07/14 14:11:36;;;;;;;163.88;155.63;;;;;;;;;;5047590;28;20082;-70
2022/07/14 14:14:02;;;;;;;160.02;152.07;;;;;;;;;;5047323;28;20033;-69
2022/07/14 14:16:27;;;;;;;153.57;145.82;;;;;;;;;;5047184;28;20102;-68
2022/07/14 14:18:53;;;;;;;159.70;151.75;;;;;;;;;;5047668;28;20032;-68
2022/07/14 14:21:18;;;;;;;142.82;135.65;;;;;;;;;;5046089;28;20111;-67
2022/07/14 14:23:44;;;;;;;144.75;137.50;;;;;;;;;;5047328;28;20040;-67
2022/07/14 14:26:10;;;;;;;171.70;163.20;;;;;;;;;;5046780;28;20029;-68
2022/07/14 14:28:35;;;;;;;169.88;161.43;;;;;;;;;;5045955;28;20300;-68
2022/07/14 14:31:01;;;;;;;160.55;152.60;;;;;;;;;;5046862;28;20025;-68
2022/07/14 14:33:27;;;;;;;167.90;159.50;;;;;;;;;;5046749;28;20040;-68
2022/07/14 14:35:53;;;;;;;166.95;158.63;;;;;;;;;;5046829;28;20044;-68
2022/07/14 14:38:18;;;;;;;162.48;154.38;;;;;;;;;;5047136;28;20355;-68
2022/07/14 14:40:44;;;;;;;166.80;158.48;;;;;;;;;;5047039;28;20024;-68
2022/07/14 14:43:12;;;;;;;126.32;120.03;;;;;;;;;;5046542;28;20063;-68
2022/07/14 14:45:39;;;;;;;148.93;141.52;;;;;;;;;;5044941;28;20365;-68
2022/07/14 14:48:04;;;;;;;144.18;136.98;;;;;;;;;;5046893;28;20471;-68
2022/07/14 14:50:30;;;;;;;182.60;173.50;;;;;;;;;;5046736;28;20033;-68